createdAt,value
2018-08-20T00:02:11.523Z,23.40
2018-08-20T00:04:46.666Z,23.30
2018-08-20T00:07:17.057Z,23.30
2018-08-20T00:09:47.895Z,23.30
2018-08-20T00:12:20.566Z,23.30
2018-08-20T00:14:51.124Z,23.30
2018-08-20T00:17:21.757Z,23.30
2018-08-20T00:19:52.181Z,23.30
2018-08-20T00:22:22.521Z,23.20
2018-08-20T00:25:03.259Z,23.20
2018-08-20T00:27:33.748Z,23.20
2018-08-20T00:30:04.078Z,23.20
2018-08-20T00:32:34.409Z,23.20
2018-08-20T00:35:04.775Z,23.20
2018-08-20T00:37:35.169Z,23.20
2018-08-20T00:40:05.811Z,23.20
2018-08-20T00:42:36.167Z,23.20
2018-08-20T00:45:07.255Z,23.20
2018-08-20T00:47:37.597Z,23.20
2018-08-20T00:50:08.925Z,23.20
2018-08-20T00:52:39.458Z,23.20
2018-08-20T00:55:12.231Z,23.20
2018-08-20T00:57:42.984Z,23.10
2018-08-20T01:00:13.345Z,23.10
2018-08-20T01:02:43.675Z,23.10
2018-08-20T01:05:14.026Z,23.10
2018-08-20T01:07:44.387Z,23.10
2018-08-20T01:10:14.835Z,23.10
2018-08-20T01:12:45.217Z,23.10
2018-08-20T01:15:15.557Z,23.10
2018-08-20T01:17:46.940Z,23.10
2018-08-20T01:20:17.611Z,23.10
2018-08-20T01:22:47.964Z,23.10
2018-08-20T01:25:19.352Z,23.10
2018-08-20T01:27:49.703Z,23.10
2018-08-20T01:30:20.067Z,23.00
2018-08-20T01:32:50.439Z,23.00
2018-08-20T01:35:28.777Z,23.00
2018-08-20T01:37:59.101Z,23.00
2018-08-20T01:40:29.445Z,23.00
2018-08-20T01:42:59.771Z,23.00
2018-08-20T01:45:30.117Z,23.00
2018-08-20T01:48:00.444Z,23.00
2018-08-20T01:50:30.776Z,23.00
2018-08-20T01:53:01.116Z,23.00
2018-08-20T01:55:31.486Z,23.00
2018-08-20T01:58:01.821Z,23.00
2018-08-20T02:00:32.468Z,23.00
2018-08-20T02:03:03.736Z,23.00
2018-08-20T02:05:35.289Z,23.00
2018-08-20T02:08:05.611Z,23.00
2018-08-20T02:10:36.051Z,23.00
2018-08-20T02:13:06.403Z,23.00
2018-08-20T02:15:38.843Z,23.00
2018-08-20T02:18:12.057Z,23.00
2018-08-20T02:20:42.432Z,23.00
2018-08-20T02:23:12.800Z,23.00
2018-08-20T02:25:43.153Z,22.90
2018-08-20T02:28:13.509Z,22.90
2018-08-20T02:30:43.864Z,22.90
2018-08-20T02:33:14.244Z,22.90
2018-08-20T02:35:44.607Z,22.90
2018-08-20T02:38:15.041Z,22.90
2018-08-20T02:40:45.378Z,22.90
2018-08-20T02:43:15.721Z,22.90
2018-08-20T02:45:46.305Z,22.90
2018-08-20T02:48:16.627Z,22.90
2018-08-20T02:50:46.981Z,22.90
2018-08-20T02:53:17.388Z,22.90
2018-08-20T02:55:47.705Z,22.90
2018-08-20T02:58:18.036Z,22.80
2018-08-20T03:00:48.379Z,22.80
2018-08-20T03:03:18.704Z,22.80
2018-08-20T03:05:49.069Z,22.80
2018-08-20T03:08:19.420Z,22.80
2018-08-20T03:10:49.741Z,22.80
2018-08-20T03:13:20.042Z,22.80
2018-08-20T03:15:50.377Z,22.80
2018-08-20T03:18:21.089Z,22.80
2018-08-20T03:20:51.425Z,22.80
2018-08-20T03:23:21.792Z,22.80
2018-08-20T03:25:52.123Z,22.80
2018-08-20T03:28:22.463Z,22.80
2018-08-20T03:30:52.781Z,22.80
2018-08-20T03:33:23.099Z,22.80
2018-08-20T03:35:53.424Z,22.70
2018-08-20T03:38:23.745Z,22.80
2018-08-20T03:40:54.091Z,22.80
2018-08-20T03:43:24.529Z,22.70
2018-08-20T03:45:55.183Z,22.70
2018-08-20T03:48:25.601Z,22.70
2018-08-20T03:50:55.951Z,22.70
2018-08-20T03:53:26.275Z,22.70
2018-08-20T03:55:56.619Z,22.70
2018-08-20T03:58:26.930Z,22.70
2018-08-20T04:00:57.269Z,22.70
2018-08-20T04:03:27.611Z,22.70
2018-08-20T04:05:58.022Z,22.60
2018-08-20T04:08:28.332Z,22.60
2018-08-20T04:10:58.682Z,22.60
2018-08-20T04:13:59.829Z,22.60
2018-08-20T04:16:30.159Z,22.60
2018-08-20T04:19:05.144Z,22.60
2018-08-20T04:21:35.511Z,22.60
2018-08-20T04:24:06.289Z,22.60
2018-08-20T04:26:36.613Z,22.60
2018-08-20T04:29:07.231Z,22.60
2018-08-20T04:31:37.635Z,22.60
2018-08-20T04:34:08.201Z,22.60
2018-08-20T04:36:38.639Z,22.60
2018-08-20T04:39:10.178Z,22.60
2018-08-20T04:41:40.621Z,22.60
2018-08-20T04:44:11.035Z,22.60
2018-08-20T04:46:41.409Z,22.60
2018-08-20T04:49:11.723Z,22.60
2018-08-20T04:51:42.092Z,22.60
2018-08-20T04:54:12.441Z,22.60
2018-08-20T04:56:42.803Z,22.60
2018-08-20T04:59:14.108Z,22.60
2018-08-20T05:01:44.462Z,22.60
2018-08-20T05:04:14.803Z,22.60
2018-08-20T05:06:45.177Z,22.60
2018-08-20T05:09:16.090Z,22.60
2018-08-20T05:11:46.440Z,22.60
2018-08-20T05:14:16.877Z,22.60
2018-08-20T05:16:47.300Z,22.60
2018-08-20T05:19:18.015Z,22.60
2018-08-20T05:21:48.346Z,22.60
2018-08-20T05:24:18.776Z,22.60
2018-08-20T05:26:49.101Z,22.60
2018-08-20T05:29:19.564Z,22.60
2018-08-20T05:31:49.944Z,22.60
2018-08-20T05:34:20.371Z,22.60
2018-08-20T05:36:50.934Z,22.60
2018-08-20T05:39:21.236Z,22.60
2018-08-20T05:41:51.585Z,22.60
2018-08-20T05:44:22.175Z,22.60
2018-08-20T05:46:52.538Z,22.60
2018-08-20T05:49:22.863Z,22.60
2018-08-20T05:51:53.263Z,22.60
2018-08-20T05:54:23.603Z,22.60
2018-08-20T05:56:54.017Z,22.60
2018-08-20T05:59:24.353Z,22.60
2018-08-20T06:01:54.771Z,22.60
2018-08-20T06:04:25.095Z,22.60
2018-08-20T06:06:55.526Z,22.60
2018-08-20T06:09:26.689Z,22.60
2018-08-20T06:11:57.008Z,22.60
2018-08-20T06:14:27.313Z,22.60
2018-08-20T06:16:57.675Z,22.60
2018-08-20T06:19:28.380Z,22.60
2018-08-20T06:21:58.706Z,22.60
2018-08-20T06:24:29.118Z,22.60
2018-08-20T06:26:59.459Z,22.60
2018-08-20T06:29:29.907Z,22.60
2018-08-20T06:32:00.248Z,22.60
2018-08-20T06:34:30.657Z,22.60
2018-08-20T06:37:01.115Z,22.60
2018-08-20T06:39:32.237Z,22.60
2018-08-20T06:42:02.608Z,22.60
2018-08-20T06:44:32.969Z,22.60
2018-08-20T06:47:03.340Z,22.60
2018-08-20T06:49:33.735Z,22.60
2018-08-20T06:52:04.135Z,22.60
2018-08-20T06:54:34.541Z,22.60
2018-08-20T06:57:04.971Z,22.60
2018-08-20T06:59:35.323Z,22.60
2018-08-20T07:02:05.683Z,22.60
2018-08-20T07:04:36.041Z,22.60
2018-08-20T07:07:06.887Z,22.60
2018-08-20T07:09:37.261Z,22.60
2018-08-20T07:12:07.686Z,22.60
2018-08-20T07:14:38.116Z,22.60
2018-08-20T07:17:08.505Z,22.60
2018-08-20T07:19:39.249Z,22.60
2018-08-20T07:22:09.701Z,22.60
2018-08-20T07:24:40.111Z,22.60
2018-08-20T07:27:10.445Z,22.60
2018-08-20T07:29:42.083Z,22.60
2018-08-20T07:32:13.643Z,22.60
2018-08-20T07:34:45.265Z,22.60
2018-08-20T07:37:16.869Z,22.60
2018-08-20T07:39:48.430Z,22.60
2018-08-20T07:42:18.961Z,22.60
2018-08-20T07:44:49.274Z,22.60
2018-08-20T07:47:19.714Z,22.60
2018-08-20T07:49:50.016Z,22.60
2018-08-20T07:52:20.387Z,22.60
2018-08-20T07:54:50.699Z,22.60
2018-08-20T07:57:21.033Z,22.60
2018-08-20T07:59:51.398Z,22.60
2018-08-20T08:02:21.763Z,22.60
2018-08-20T08:04:52.190Z,22.60
2018-08-20T08:07:22.589Z,22.60
2018-08-20T08:09:52.908Z,22.60
2018-08-20T08:12:23.250Z,22.60
2018-08-20T08:14:53.563Z,22.60
2018-08-20T08:17:23.944Z,22.60
2018-08-20T08:19:55.312Z,22.60
2018-08-20T08:22:25.670Z,22.60
2018-08-20T08:24:56.711Z,22.60
2018-08-20T08:27:27.925Z,22.60
2018-08-20T08:29:58.239Z,22.60
2018-08-20T08:32:28.840Z,22.60
2018-08-20T08:34:59.180Z,22.60
2018-08-20T08:37:29.503Z,22.60
2018-08-20T08:39:59.894Z,22.60
2018-08-20T08:42:30.269Z,22.60
2018-08-20T08:45:00.601Z,22.60
2018-08-20T08:47:30.959Z,22.60
2018-08-20T08:50:01.460Z,22.60
2018-08-20T08:52:31.848Z,22.60
2018-08-20T08:55:02.156Z,22.60
2018-08-20T08:57:32.813Z,22.60
2018-08-20T09:00:03.145Z,22.60
2018-08-20T09:02:33.580Z,22.60
2018-08-20T09:05:03.897Z,22.60
2018-08-20T09:07:34.271Z,22.60
2018-08-20T09:10:04.645Z,22.60
2018-08-20T09:12:35.071Z,22.60
2018-08-20T09:15:06.509Z,22.60
2018-08-20T09:17:36.918Z,22.60
2018-08-20T09:20:09.771Z,22.60
2018-08-20T09:22:40.342Z,22.60
2018-08-20T09:25:12.012Z,22.60
2018-08-20T09:27:43.349Z,22.60
2018-08-20T09:30:21.205Z,22.60
2018-08-20T09:32:51.568Z,22.60
2018-08-20T09:35:21.913Z,22.60
2018-08-20T09:37:52.233Z,22.60
2018-08-20T09:40:22.634Z,22.60
2018-08-20T09:42:53.643Z,22.60
2018-08-20T09:45:23.959Z,22.60
2018-08-20T09:47:54.533Z,22.60
2018-08-20T09:50:24.852Z,22.60
2018-08-20T09:52:55.193Z,22.60
2018-08-20T09:55:25.620Z,22.60
2018-08-20T09:57:55.942Z,22.60
2018-08-20T10:00:31.252Z,22.60
2018-08-20T10:03:01.635Z,22.50
2018-08-20T10:05:31.964Z,22.50
2018-08-20T10:08:02.313Z,22.50
2018-08-20T10:10:32.601Z,22.50
2018-08-20T10:13:02.914Z,22.50
2018-08-20T10:15:33.303Z,22.50
2018-08-20T10:18:03.643Z,22.50
2018-08-20T10:20:34.308Z,22.50
2018-08-20T10:23:04.735Z,22.50
2018-08-20T10:25:35.100Z,22.50
2018-08-20T10:28:05.448Z,22.40
2018-08-20T10:30:35.797Z,22.40
2018-08-20T10:33:06.155Z,22.40
2018-08-20T10:35:36.461Z,22.50
2018-08-20T10:38:07.314Z,22.40
2018-08-20T10:40:37.708Z,22.40
2018-08-20T10:43:08.057Z,22.40
2018-08-20T10:45:43.264Z,22.40
2018-08-20T10:48:13.733Z,22.40
2018-08-20T10:50:44.135Z,22.40
2018-08-20T10:53:14.480Z,22.40
2018-08-20T10:55:44.851Z,22.40
2018-08-20T10:58:15.205Z,22.40
2018-08-20T11:00:45.488Z,22.40
2018-08-20T11:03:16.008Z,22.40
2018-08-20T11:05:46.343Z,22.40
2018-08-20T11:08:16.695Z,22.40
2018-08-20T11:10:47.037Z,22.40
2018-08-20T11:13:17.399Z,22.40
2018-08-20T11:15:48.248Z,22.40
2018-08-20T11:18:18.627Z,22.40
2018-08-20T11:20:49.310Z,22.40
2018-08-20T11:23:19.634Z,22.40
2018-08-20T11:25:49.969Z,22.40
2018-08-20T11:28:20.331Z,22.40
2018-08-20T11:30:50.659Z,22.40
2018-08-20T11:33:20.994Z,22.40
2018-08-20T11:35:51.341Z,22.40
2018-08-20T11:38:21.669Z,22.40
2018-08-20T11:40:52.691Z,22.50
2018-08-20T11:43:23.117Z,22.50
2018-08-20T11:45:53.541Z,22.50
2018-08-20T11:48:23.904Z,22.50
2018-08-20T11:50:54.213Z,22.50
2018-08-20T11:53:24.581Z,22.50
2018-08-20T11:55:54.906Z,22.50
2018-08-20T11:58:25.327Z,22.50
2018-08-20T12:00:55.646Z,22.50
2018-08-20T12:03:25.977Z,22.60
2018-08-20T12:05:56.277Z,22.60
2018-08-20T12:08:26.632Z,22.60
2018-08-20T12:10:57.092Z,22.60
2018-08-20T12:13:27.487Z,22.60
2018-08-20T12:15:57.826Z,22.60
2018-08-20T12:18:28.157Z,22.60
2018-08-20T12:20:58.857Z,22.60
2018-08-20T12:23:29.177Z,22.70
2018-08-20T12:25:59.489Z,22.70
2018-08-20T12:28:29.867Z,22.70
2018-08-20T12:31:00.233Z,22.70
2018-08-20T12:33:30.598Z,22.70
2018-08-20T12:36:00.920Z,22.70
2018-08-20T12:38:31.284Z,22.70
2018-08-20T12:41:02.067Z,22.70
2018-08-20T12:43:32.410Z,22.70
2018-08-20T12:46:03.202Z,22.70
2018-08-20T12:48:33.664Z,22.80
2018-08-20T12:51:03.973Z,22.80
2018-08-20T12:53:34.305Z,22.80
2018-08-20T12:56:04.623Z,22.80
2018-08-20T12:58:35.004Z,22.80
2018-08-20T13:01:05.314Z,22.90
2018-08-20T13:03:35.656Z,22.90
2018-08-20T13:06:06.009Z,22.90
2018-08-20T13:08:36.333Z,22.90
2018-08-20T13:11:06.756Z,22.90
2018-08-20T13:13:37.140Z,22.90
2018-08-20T13:16:07.708Z,22.90
2018-08-20T13:18:38.000Z,22.90
2018-08-20T13:21:08.735Z,22.90
2018-08-20T13:23:39.094Z,23.00
2018-08-20T13:26:09.517Z,23.00
2018-08-20T13:28:39.841Z,23.00
2018-08-20T13:31:10.156Z,23.00
2018-08-20T13:33:40.628Z,23.00
2018-08-20T13:36:10.965Z,23.10
2018-08-20T13:38:41.336Z,23.10
2018-08-20T13:41:11.647Z,23.10
2018-08-20T13:43:42.486Z,23.10
2018-08-20T13:46:12.813Z,23.10
2018-08-20T13:48:44.113Z,23.10
2018-08-20T13:51:14.495Z,23.10
2018-08-20T13:53:44.860Z,23.10
2018-08-20T13:56:15.161Z,23.10
2018-08-20T13:58:45.513Z,23.20
2018-08-20T14:01:15.921Z,23.20
2018-08-20T14:03:46.292Z,23.20
2018-08-20T14:06:16.620Z,23.10
2018-08-20T14:08:46.960Z,23.10
2018-08-20T14:11:17.290Z,23.10
2018-08-20T14:13:47.624Z,23.00
2018-08-20T14:16:18.074Z,23.00
2018-08-20T14:18:48.418Z,22.90
2018-08-20T14:21:19.100Z,22.90
2018-08-20T14:23:50.488Z,22.90
2018-08-20T14:26:20.818Z,22.80
2018-08-20T14:28:51.155Z,22.90
2018-08-20T14:31:22.409Z,22.90
2018-08-20T14:33:52.824Z,22.90
2018-08-20T14:36:23.204Z,22.90
2018-08-20T14:38:53.540Z,23.00
2018-08-20T14:41:23.868Z,23.00
2018-08-20T14:43:54.285Z,23.00
2018-08-20T14:46:24.833Z,23.00
2018-08-20T14:48:55.267Z,23.10
2018-08-20T14:51:25.622Z,23.10
2018-08-20T14:53:56.064Z,23.10
2018-08-20T14:56:27.087Z,23.10
2018-08-20T14:58:57.562Z,23.10
2018-08-20T15:01:27.941Z,23.20
2018-08-20T15:03:58.326Z,23.20
2018-08-20T15:06:28.885Z,23.20
2018-08-20T15:08:59.196Z,23.20
2018-08-20T15:11:29.626Z,23.20
2018-08-20T15:14:00.055Z,23.30
2018-08-20T15:16:30.481Z,23.30
2018-08-20T15:19:00.789Z,23.30
2018-08-20T15:21:31.431Z,23.30
2018-08-20T15:24:01.753Z,23.40
2018-08-20T15:26:32.136Z,23.40
2018-08-20T15:29:02.499Z,23.40
2018-08-20T15:31:32.854Z,23.40
2018-08-20T15:34:03.267Z,23.40
2018-08-20T15:36:33.593Z,23.40
2018-08-20T15:39:04.553Z,23.40
2018-08-20T15:41:35.148Z,23.40
2018-08-20T15:44:06.796Z,23.40
2018-08-20T15:46:37.153Z,23.40
2018-08-20T15:49:07.719Z,23.50
2018-08-20T15:51:38.076Z,23.50
2018-08-20T15:54:09.635Z,23.50
2018-08-20T15:56:39.980Z,23.50
2018-08-20T15:59:10.340Z,23.50
2018-08-20T16:01:40.669Z,23.50
2018-08-20T16:04:11.389Z,23.50
2018-08-20T16:06:41.738Z,23.50
2018-08-20T16:09:12.075Z,23.50
2018-08-20T16:11:42.409Z,23.50
2018-08-20T16:14:12.796Z,23.50
2018-08-20T16:16:43.137Z,23.60
2018-08-20T16:19:13.457Z,23.60
2018-08-20T16:21:44.157Z,23.60
2018-08-20T16:24:14.568Z,23.60
2018-08-20T16:26:45.830Z,23.60
2018-08-20T16:29:16.328Z,23.60
2018-08-20T16:31:46.681Z,23.60
2018-08-20T16:34:17.106Z,23.60
2018-08-20T16:36:47.433Z,23.60
2018-08-20T16:39:17.825Z,23.60
2018-08-20T16:41:48.287Z,23.70
2018-08-20T16:44:18.657Z,23.70
2018-08-20T16:46:48.971Z,23.70
2018-08-20T16:49:19.313Z,23.70
2018-08-20T16:51:49.715Z,23.70
2018-08-20T16:54:20.729Z,23.70
2018-08-20T16:56:51.021Z,23.70
2018-08-20T16:59:21.463Z,23.70
2018-08-20T17:01:51.765Z,23.80
2018-08-20T17:04:33.563Z,23.80
2018-08-20T17:07:04.378Z,23.80
2018-08-20T17:09:34.771Z,23.80
2018-08-20T17:12:05.167Z,23.80
2018-08-20T17:14:35.525Z,23.80
2018-08-20T17:17:06.143Z,23.80
2018-08-20T17:19:36.502Z,23.80
2018-08-20T17:22:07.280Z,23.80
2018-08-20T17:24:41.223Z,23.80
2018-08-20T17:27:12.296Z,23.90
2018-08-20T17:29:42.649Z,23.90
2018-08-20T17:32:13.077Z,23.90
2018-08-20T17:34:43.868Z,23.90
2018-08-20T17:37:14.240Z,23.90
2018-08-20T17:39:59.944Z,23.90
2018-08-20T17:42:31.416Z,23.90
2018-08-20T17:45:02.659Z,23.90
2018-08-20T17:47:33.470Z,23.90
2018-08-20T17:50:03.900Z,24.00
2018-08-20T17:52:37.828Z,24.00
2018-08-20T17:55:08.270Z,24.00
2018-08-20T17:57:38.683Z,24.00
2018-08-20T18:00:55.701Z,24.00
2018-08-20T18:03:31.048Z,24.00
2018-08-20T18:06:06.683Z,24.00
2018-08-20T18:08:37.274Z,24.00
2018-08-20T18:11:08.576Z,24.00
2018-08-20T18:13:45.355Z,24.00
2018-08-20T18:16:16.910Z,24.10
2018-08-20T18:18:48.526Z,24.10
2018-08-20T18:21:19.098Z,24.10
2018-08-20T18:23:49.771Z,24.10
2018-08-20T18:26:20.863Z,24.10
2018-08-20T18:28:54.678Z,24.10
2018-08-20T18:31:26.939Z,24.10
2018-08-20T18:33:57.286Z,24.10
2018-08-20T18:36:30.895Z,24.10
2018-08-20T18:41:56.945Z,24.10
2018-08-20T18:44:28.264Z,24.10
2018-08-20T18:46:58.828Z,24.20
2018-08-20T18:49:30.150Z,24.20
2018-08-20T18:52:07.968Z,24.20
2018-08-20T18:54:40.657Z,24.20
2018-08-20T18:57:11.261Z,24.20
2018-08-20T18:59:41.607Z,24.20
2018-08-20T19:02:18.926Z,24.20
2018-08-20T19:04:50.189Z,24.20
2018-08-20T19:07:20.655Z,24.20
2018-08-20T19:09:51.653Z,24.20
2018-08-20T19:12:22.097Z,24.20
2018-08-20T19:14:52.452Z,24.20
2018-08-20T19:17:29.213Z,24.30
2018-08-20T19:20:03.204Z,24.30
2018-08-20T19:22:33.556Z,24.30
2018-08-20T19:25:04.120Z,24.30
2018-08-20T19:27:34.487Z,24.30
2018-08-20T19:30:12.941Z,24.30
2018-08-20T19:32:43.352Z,24.30
2018-08-20T19:35:13.737Z,24.30
2018-08-20T19:37:44.496Z,24.30
2018-08-20T19:40:14.857Z,24.30
2018-08-20T19:42:45.351Z,24.40
2018-08-20T19:45:15.733Z,24.40
2018-08-20T19:47:46.750Z,24.40
2018-08-20T19:50:17.167Z,24.40
2018-08-20T19:52:47.697Z,24.40
2018-08-20T19:55:18.015Z,24.40
2018-08-20T19:57:48.470Z,24.40
2018-08-20T20:00:18.932Z,24.40
2018-08-20T20:02:49.322Z,24.40
2018-08-20T20:05:19.664Z,24.40
2018-08-20T20:07:55.527Z,24.40
2018-08-20T20:10:25.910Z,24.40
2018-08-20T20:12:56.887Z,24.40
2018-08-20T20:15:27.235Z,24.40
2018-08-20T20:17:57.608Z,24.40
2018-08-20T20:20:28.034Z,24.50
2018-08-20T20:22:58.396Z,24.50
2018-08-20T20:25:29.196Z,24.50
2018-08-20T20:27:59.510Z,24.50
2018-08-20T20:31:53.669Z,24.50
2018-08-20T20:34:24.081Z,24.50
2018-08-20T20:37:24.745Z,24.50
2018-08-20T20:40:02.495Z,24.50
2018-08-20T20:43:03.256Z,24.50
2018-08-20T20:45:33.603Z,24.50
2018-08-20T20:48:03.930Z,24.50
2018-08-20T20:50:34.281Z,24.50
2018-08-20T20:53:04.630Z,24.50
2018-08-20T20:55:35.016Z,24.50
2018-08-20T20:58:05.342Z,24.50
2018-08-20T21:00:35.712Z,24.50
2018-08-20T21:03:11.690Z,24.50
2018-08-20T21:05:42.036Z,24.50
2018-08-20T21:08:12.357Z,24.50
2018-08-20T21:10:47.596Z,24.50
2018-08-20T21:13:18.656Z,24.50
2018-08-20T21:16:10.567Z,24.50
2018-08-20T21:18:44.081Z,24.50
2018-08-20T21:21:15.571Z,24.50
2018-08-20T21:23:46.192Z,24.50
2018-08-20T21:26:16.857Z,24.50
2018-08-20T21:28:51.534Z,24.50
2018-08-20T21:31:24.079Z,24.50
2018-08-20T21:33:57.913Z,24.50
2018-08-20T21:36:28.353Z,24.50
2018-08-20T21:38:58.672Z,24.50
2018-08-20T21:41:29.963Z,24.50
2018-08-20T21:44:00.327Z,24.50
2018-08-20T21:46:30.670Z,24.50
2018-08-20T21:49:00.973Z,24.50
2018-08-20T21:52:01.577Z,24.50
2018-08-20T21:54:36.688Z,24.50
2018-08-20T21:57:08.135Z,24.50
2018-08-20T21:59:38.424Z,24.50
2018-08-20T22:02:08.771Z,24.50
2018-08-20T22:04:39.095Z,24.50
2018-08-20T22:07:09.512Z,24.50
2018-08-20T22:09:39.847Z,24.50
2018-08-20T22:12:10.240Z,24.50
2018-08-20T22:14:40.667Z,24.50
2018-08-20T22:17:16.266Z,24.50
2018-08-20T22:19:46.693Z,24.50
2018-08-20T22:22:17.819Z,24.50
2018-08-20T22:24:51.717Z,24.50
2018-08-20T22:27:23.463Z,24.50
2018-08-20T22:29:53.812Z,24.50
2018-08-20T22:32:24.681Z,24.50
2018-08-20T22:34:55.005Z,24.50
2018-08-20T22:37:25.409Z,24.50
2018-08-20T22:40:00.569Z,24.50
2018-08-20T22:42:42.499Z,24.50
2018-08-20T22:45:15.167Z,24.50
2018-08-20T22:47:46.392Z,24.50
2018-08-20T22:50:16.725Z,24.50
2018-08-20T22:52:48.569Z,24.50
2018-08-20T22:55:20.001Z,24.50
2018-08-20T22:58:01.197Z,24.50
2018-08-20T23:00:31.577Z,24.50
2018-08-20T23:03:02.007Z,24.50
2018-08-20T23:05:33.422Z,24.50
2018-08-20T23:08:09.108Z,24.50
2018-08-20T23:10:43.483Z,24.50
2018-08-20T23:13:13.821Z,24.50
2018-08-20T23:15:44.185Z,24.50
2018-08-20T23:18:14.503Z,24.50
2018-08-20T23:20:47.028Z,24.40
2018-08-20T23:23:27.396Z,24.40
2018-08-20T23:26:11.975Z,24.40
2018-08-20T23:28:43.081Z,24.40
2018-08-20T23:31:14.595Z,24.40
2018-08-20T23:33:44.977Z,24.40
2018-08-20T23:36:15.392Z,24.40
2018-08-20T23:38:45.715Z,24.40
2018-08-20T23:41:16.140Z,24.40
2018-08-20T23:43:51.621Z,24.40
2018-08-20T23:46:46.298Z,24.40
2018-08-20T23:49:16.731Z,24.40
2018-08-20T23:51:47.212Z,24.40
2018-08-20T23:54:17.574Z,24.40
2018-08-20T23:56:47.893Z,24.40
2018-08-20T23:59:18.269Z,24.30
